Time;durP1;ratioP1;P1;durP2;ratioP2;P2;SDS_P1;SDS_P2;PMS_P1;PMS_P2;Temp;Humidity;BMP_temperature;BMP_pressure;BME280_temperature;BME280_humidity;BME280_pressure;Samples;Min_cycle;Max_cycle;Signal;HPM_P1;HPM_P2
2023/07/14 00:00:16;;;;;;;10.48;4.22;;;;;;;;;;5042132;28;20287;-67
2023/07/14 00:03:58;;;;;;;11.50;3.95;;;;;;;;;;5032807;28;20075;-67
2023/07/14 00:07:38;;;;;;;17.77;3.83;;;;;;;;;;5031313;28;20378;-65
2023/07/14 00:11:19;;;;;;;14.63;3.90;;;;;;;;;;5035077;28;20426;-66
2023/07/14 00:14:59;;;;;;;11.95;4.10;;;;;;;;;;5036851;28;20057;-66
2023/07/14 00:18:55;;;;;;;14.65;3.90;;;;;;;;;;5038339;28;20290;-65
2023/07/14 00:22:35;;;;;;;10.75;3.88;;;;;;;;;;5042278;28;20068;-66
2023/07/14 00:26:16;;;;;;;13.70;3.83;;;;;;;;;;5040332;28;20139;-66
2023/07/14 00:29:22;;;;;;;13.70;3.75;;;;;;;;;;5036182;28;20099;-66
2023/07/14 00:33:02;;;;;;;10.63;3.60;;;;;;;;;;5041760;28;20595;-65
2023/07/14 00:36:43;;;;;;;13.23;3.78;;;;;;;;;;5038385;28;20044;-64
2023/07/14 00:40:23;;;;;;;12.20;3.60;;;;;;;;;;5042664;28;20087;-66
2023/07/14 00:44:04;;;;;;;11.82;3.85;;;;;;;;;;5040481;28;20044;-66
2023/07/14 00:47:44;;;;;;;12.00;3.75;;;;;;;;;;5042940;28;20115;-66
2023/07/14 00:51:17;;;;;;;12.25;4.15;;;;;;;;;;5042224;28;20379;-65
2023/07/14 00:54:57;;;;;;;15.68;4.35;;;;;;;;;;5040745;28;20068;-65
2023/07/14 00:58:37;;;;;;;15.35;3.90;;;;;;;;;;5037736;28;20045;-67
2023/07/14 01:02:10;;;;;;;17.67;4.00;;;;;;;;;;5043883;28;20400;-66
2023/07/14 01:05:52;;;;;;;13.45;4.15;;;;;;;;;;5037103;28;20509;-67
2023/07/14 01:09:34;;;;;;;15.93;4.43;;;;;;;;;;5044398;28;20048;-65
2023/07/14 01:13:14;;;;;;;12.80;4.00;;;;;;;;;;5033975;28;20053;-64
2023/07/14 01:16:54;;;;;;;10.55;3.47;;;;;;;;;;5039708;28;20056;-65
2023/07/14 01:20:38;;;;;;;13.27;3.88;;;;;;;;;;5045131;28;20041;-66
2023/07/14 01:24:27;;;;;;;15.98;3.97;;;;;;;;;;5038269;28;20374;-65
2023/07/14 01:28:08;;;;;;;13.07;3.90;;;;;;;;;;5033628;28;20052;-65
2023/07/14 01:31:51;;;;;;;16.75;3.88;;;;;;;;;;5041700;28;20317;-68
2023/07/14 01:35:32;;;;;;;14.20;3.50;;;;;;;;;;5039219;28;20412;-65
2023/07/14 01:39:12;;;;;;;15.63;4.72;;;;;;;;;;5034561;28;20124;-65
2023/07/14 01:42:52;;;;;;;8.75;3.60;;;;;;;;;;5034720;28;20520;-64
2023/07/14 01:46:35;;;;;;;15.68;3.72;;;;;;;;;;5039219;28;20049;-65
2023/07/14 01:50:08;;;;;;;10.48;3.55;;;;;;;;;;5045335;28;20056;-64
2023/07/14 01:53:48;;;;;;;17.20;3.70;;;;;;;;;;5040328;28;20115;-65
2023/07/14 01:57:28;;;;;;;12.05;3.58;;;;;;;;;;5034278;28;20060;-66
2023/07/14 02:01:09;;;;;;;12.15;3.88;;;;;;;;;;5041821;28;20056;-65
2023/07/14 02:04:49;;;;;;;13.55;3.90;;;;;;;;;;5037767;28;20486;-66
2023/07/14 02:08:29;;;;;;;12.10;3.85;;;;;;;;;;5037912;28;20041;-64
2023/07/14 02:12:16;;;;;;;17.23;3.40;;;;;;;;;;5036193;28;20402;-65
2023/07/14 02:15:45;;;;;;;;;;;;;;;;;;5038877;28;20404;-64
2023/07/14 02:19:26;;;;;;;11.85;3.45;;;;;;;;;;5042797;28;19935;-65
2023/07/14 02:23:06;;;;;;;11.57;3.65;;;;;;;;;;5036453;28;20643;-64
2023/07/14 02:26:46;;;;;;;15.82;3.78;;;;;;;;;;5039794;28;20053;-65
2023/07/14 02:30:29;;;;;;;11.48;3.50;;;;;;;;;;5039053;28;20063;-65
2023/07/14 02:34:09;;;;;;;11.52;3.75;;;;;;;;;;5043923;28;20057;-66
2023/07/14 02:38:14;;;;;;;14.40;3.95;;;;;;;;;;5037652;28;20056;-65
2023/07/14 02:42:01;;;;;;;10.13;3.35;;;;;;;;;;5001775;28;20561;-65
2023/07/14 02:45:41;;;;;;;14.60;3.30;;;;;;;;;;4992346;28;20077;-65
2023/07/14 02:49:21;;;;;;;12.32;3.33;;;;;;;;;;5002680;28;20045;-67
2023/07/14 02:53:02;;;;;;;13.93;3.42;;;;;;;;;;4999424;28;20413;-66
2023/07/14 02:56:43;;;;;;;11.45;3.67;;;;;;;;;;5000680;28;20049;-66
2023/07/14 03:00:23;;;;;;;13.05;3.17;;;;;;;;;;5002393;28;20053;-68
2023/07/14 03:04:04;;;;;;;9.00;3.22;;;;;;;;;;5003640;28;20042;-66
2023/07/14 03:07:46;;;;;;;12.82;3.28;;;;;;;;;;5004684;28;20485;-66
2023/07/14 03:11:27;;;;;;;16.90;3.63;;;;;;;;;;5014678;28;20094;-64
2023/07/14 03:15:08;;;;;;;12.77;3.50;;;;;;;;;;5036410;28;20140;-65
2023/07/14 03:18:48;;;;;;;13.20;3.38;;;;;;;;;;5033748;28;20049;-69
2023/07/14 03:22:30;;;;;;;9.63;3.10;;;;;;;;;;5036775;28;20429;-65
2023/07/14 03:26:24;;;;;;;13.40;3.50;;;;;;;;;;5037142;28;20049;-65
2023/07/14 03:30:04;;;;;;;9.05;3.20;;;;;;;;;;5032812;28;20129;-65
2023/07/14 03:33:45;;;;;;;12.73;3.60;;;;;;;;;;5039568;28;20047;-65
2023/07/14 03:37:25;;;;;;;11.02;3.50;;;;;;;;;;5034710;28;20045;-64
2023/07/14 03:41:05;;;;;;;14.82;3.30;;;;;;;;;;5033343;28;20557;-66
2023/07/14 03:44:46;;;;;;;16.25;3.88;;;;;;;;;;5036964;28;20049;-66
2023/07/14 03:48:26;;;;;;;8.13;3.50;;;;;;;;;;5038381;28;20094;-64
2023/07/14 03:52:06;;;;;;;14.50;3.10;;;;;;;;;;5038276;28;20053;-64
2023/07/14 03:55:47;;;;;;;15.25;3.95;;;;;;;;;;5039486;28;20128;-65
2023/07/14 03:59:27;;;;;;;17.50;3.78;;;;;;;;;;5035261;28;20493;-66
2023/07/14 04:03:07;;;;;;;19.05;3.92;;;;;;;;;;5035713;28;20095;-65
2023/07/14 04:06:47;;;;;;;13.70;3.63;;;;;;;;;;5042529;28;20057;-64
2023/07/14 04:10:28;;;;;;;15.63;3.25;;;;;;;;;;5041737;28;20149;-66
2023/07/14 04:14:09;;;;;;;11.57;3.25;;;;;;;;;;5041116;28;20069;-64
2023/07/14 04:17:49;;;;;;;13.60;3.35;;;;;;;;;;5038851;28;20516;-66
2023/07/14 04:21:29;;;;;;;17.15;3.90;;;;;;;;;;5037746;28;20049;-64
2023/07/14 04:25:09;;;;;;;16.15;3.42;;;;;;;;;;5035843;28;20053;-65
2023/07/14 04:28:50;;;;;;;15.73;3.95;;;;;;;;;;5040911;28;20055;-65
2023/07/14 04:32:30;;;;;;;15.00;4.03;;;;;;;;;;5042970;28;20079;-65
2023/07/14 04:36:12;;;;;;;12.43;3.88;;;;;;;;;;5048506;28;20041;-64
2023/07/14 04:39:52;;;;;;;13.27;3.67;;;;;;;;;;5040893;28;20101;-65
2023/07/14 04:43:32;;;;;;;13.18;3.10;;;;;;;;;;5039975;28;20374;-64
2023/07/14 04:47:13;;;;;;;10.55;2.97;;;;;;;;;;5040594;28;20048;-65
2023/07/14 04:50:53;;;;;;;13.52;3.78;;;;;;;;;;5040586;28;20094;-65
2023/07/14 04:54:35;;;;;;;13.30;3.40;;;;;;;;;;5043003;28;20073;-67
2023/07/14 04:58:16;;;;;;;13.05;3.80;;;;;;;;;;5039239;28;20045;-65
2023/07/14 05:01:57;;;;;;;13.85;3.28;;;;;;;;;;5033481;28;20053;-65
2023/07/14 05:05:52;;;;;;;16.33;3.97;;;;;;;;;;5041446;28;20053;-66
2023/07/14 05:09:34;;;;;;;14.95;3.50;;;;;;;;;;4984448;28;20038;-67
2023/07/14 05:13:12;;;;;;;14.68;3.88;;;;;;;;;;4979136;28;20061;-66
2023/07/14 05:16:53;;;;;;;19.10;3.65;;;;;;;;;;4976530;28;20514;-65
2023/07/14 05:20:33;;;;;;;15.25;3.38;;;;;;;;;;4975530;28;20157;-66
2023/07/14 05:23:20;;;;;;;12.73;3.25;;;;;;;;;;4983368;28;20054;-66
2023/07/14 05:25:45;;;;;;;17.02;3.97;;;;;;;;;;4974883;28;20449;-66
2023/07/14 05:28:11;;;;;;;13.02;3.35;;;;;;;;;;4977633;28;20805;-68
2023/07/14 05:30:37;;;;;;;12.40;2.92;;;;;;;;;;4980280;28;20050;-65
2023/07/14 05:33:04;;;;;;;10.07;3.50;;;;;;;;;;4973814;28;20236;-70
2023/07/14 05:36:44;;;;;;;11.68;3.33;;;;;;;;;;4977394;28;20050;-66
2023/07/14 05:40:25;;;;;;;24.55;4.72;;;;;;;;;;4980568;28;20425;-68
2023/07/14 05:44:05;;;;;;;12.95;3.50;;;;;;;;;;5035902;28;20133;-69
2023/07/14 05:47:33;;;;;;;14.73;3.15;;;;;;;;;;5039196;28;20048;-64
2023/07/14 05:50:39;;;;;;;22.58;3.40;;;;;;;;;;5015304;28;20567;-67
2023/07/14 05:54:13;;;;;;;17.30;3.35;;;;;;;;;;5039673;28;20064;-66
2023/07/14 05:57:53;;;;;;;13.93;3.60;;;;;;;;;;5039588;28;20115;-66
2023/07/14 06:01:34;;;;;;;12.98;3.17;;;;;;;;;;5038212;28;20041;-64
2023/07/14 06:05:15;;;;;;;10.73;4.07;;;;;;;;;;5043453;28;20146;-66
2023/07/14 06:08:55;;;;;;;12.25;4.18;;;;;;;;;;5037062;28;20040;-65
2023/07/14 06:12:35;;;;;;;15.13;4.53;;;;;;;;;;5041767;28;20436;-65
2023/07/14 06:16:16;;;;;;;12.48;3.85;;;;;;;;;;5036871;28;20049;-64
2023/07/14 06:19:38;;;;;;;12.65;4.30;;;;;;;;;;5044054;28;20041;-66
2023/07/14 06:22:06;;;;;;;14.85;3.70;;;;;;;;;;5017152;28;20045;-66
2023/07/14 06:25:12;;;;;;;18.13;4.03;;;;;;;;;;5041593;28;20049;-66
2023/07/14 06:28:52;;;;;;;22.52;3.70;;;;;;;;;;5039698;28;20128;-65
2023/07/14 06:32:32;;;;;;;14.38;3.50;;;;;;;;;;5029523;28;20048;-65
2023/07/14 06:36:12;;;;;;;18.33;3.47;;;;;;;;;;5039932;28;20044;-65
2023/07/14 06:39:53;;;;;;;12.88;3.30;;;;;;;;;;5037315;28;20057;-69
2023/07/14 06:42:55;;;;;;;13.05;3.47;;;;;;;;;;5028207;28;20041;-71
2023/07/14 06:46:01;;;;;;;18.65;3.90;;;;;;;;;;5042860;28;20393;-70
2023/07/14 06:49:23;;;;;;;13.90;3.13;;;;;;;;;;5039827;28;20119;-69
2023/07/14 06:51:50;;;;;;;13.90;3.60;;;;;;;;;;5034292;28;20049;-68
2023/07/14 06:54:57;;;;;;;16.20;3.80;;;;;;;;;;5036662;28;20561;-70
2023/07/14 06:58:36;;;;;;;14.25;3.10;;;;;;;;;;5032637;28;20045;-69
2023/07/14 07:02:16;;;;;;;15.60;3.20;;;;;;;;;;5030598;28;20157;-69
2023/07/14 07:05:57;;;;;;;12.45;3.60;;;;;;;;;;5033943;28;20049;-68
2023/07/14 07:09:37;;;;;;;17.35;3.53;;;;;;;;;;5033267;28;20087;-68
2023/07/14 07:13:17;;;;;;;10.57;3.05;;;;;;;;;;5039012;28;20556;-71
2023/07/14 07:16:58;;;;;;;16.05;3.42;;;;;;;;;;5034779;28;20084;-68
2023/07/14 07:20:39;;;;;;;12.25;3.47;;;;;;;;;;5037858;28;20069;-68
2023/07/14 07:24:19;;;;;;;13.20;3.40;;;;;;;;;;5034476;28;20079;-69
2023/07/14 07:28:00;;;;;;;15.35;3.17;;;;;;;;;;5039240;28;20049;-67
2023/07/14 07:31:40;;;;;;;17.15;3.47;;;;;;;;;;5033105;28;20056;-68
2023/07/14 07:35:20;;;;;;;14.93;4.05;;;;;;;;;;5034963;28;20049;-69
2023/07/14 07:38:25;;;;;;;17.50;3.92;;;;;;;;;;5035287;28;20033;-70
2023/07/14 07:40:51;;;;;;;10.63;4.13;;;;;;;;;;5034285;28;20571;-70
2023/07/14 07:43:58;;;;;;;9.43;3.63;;;;;;;;;;5032604;28;20057;-68
2023/07/14 07:47:38;;;;;;;17.52;3.90;;;;;;;;;;5035899;28;20063;-68
2023/07/14 07:51:18;;;;;;;13.20;3.80;;;;;;;;;;5040471;28;20485;-69
2023/07/14 07:54:59;;;;;;;11.05;3.38;;;;;;;;;;5030657;28;20068;-69
2023/07/14 07:58:39;;;;;;;21.88;4.43;;;;;;;;;;5039404;28;20044;-69
2023/07/14 08:02:20;;;;;;;11.68;3.47;;;;;;;;;;5038936;28;20396;-69
2023/07/14 08:06:00;;;;;;;14.38;4.07;;;;;;;;;;5041197;28;20037;-71
2023/07/14 08:09:41;;;;;;;11.40;3.78;;;;;;;;;;5041048;28;20452;-68
2023/07/14 08:13:21;;;;;;;14.68;4.15;;;;;;;;;;5040753;28;20045;-69
2023/07/14 08:17:01;;;;;;;14.63;4.00;;;;;;;;;;5031810;28;20836;-70
2023/07/14 08:20:42;;;;;;;12.00;3.78;;;;;;;;;;5040390;28;20045;-70
2023/07/14 08:24:22;;;;;;;15.32;4.35;;;;;;;;;;5035770;28;20045;-70
2023/07/14 08:28:03;;;;;;;11.95;3.75;;;;;;;;;;5040932;28;20378;-69
2023/07/14 08:31:43;;;;;;;11.77;4.18;;;;;;;;;;5039585;28;20400;-67
2023/07/14 08:35:23;;;;;;;12.57;4.30;;;;;;;;;;5035217;28;20077;-68
2023/07/14 08:39:04;;;;;;;13.93;4.03;;;;;;;;;;5044734;28;20507;-68
2023/07/14 08:42:39;;;;;;;18.35;4.65;;;;;;;;;;5051017;28;20113;-70
2023/07/14 08:46:19;;;;;;;14.43;4.70;;;;;;;;;;5043446;28;20675;-71
2023/07/14 08:50:11;;;;;;;12.38;4.35;;;;;;;;;;5046608;28;20292;-69
2023/07/14 08:53:52;;;;;;;14.32;4.70;;;;;;;;;;5046650;28;20048;-69
2023/07/14 08:57:31;;;;;;;14.45;5.03;;;;;;;;;;5035297;28;20049;-69
2023/07/14 09:00:36;;;;;;;16.88;4.93;;;;;;;;;;5041702;28;20045;-67
2023/07/14 09:04:03;;;;;;;14.38;4.63;;;;;;;;;;5047668;28;20397;-70
2023/07/14 09:07:42;;;;;;;20.92;5.30;;;;;;;;;;5035704;28;20136;-70
2023/07/14 09:10:54;;;;;;;20.58;5.32;;;;;;;;;;5039899;28;20441;-70
2023/07/14 09:13:58;;;;;;;10.88;4.53;;;;;;;;;;5045375;28;20044;-68
2023/07/14 09:17:42;;;;;;;15.00;4.50;;;;;;;;;;5046431;28;20037;-70
2023/07/14 09:21:28;;;;;;;15.82;5.43;;;;;;;;;;5015498;28;20068;-70
2023/07/14 09:24:52;;;;;;;17.48;4.63;;;;;;;;;;5013313;28;20549;-69
2023/07/14 09:28:30;;;;;;;19.30;4.88;;;;;;;;;;5013731;28;20132;-69
2023/07/14 09:32:32;;;;;;;14.98;4.57;;;;;;;;;;5016740;28;20473;-69
2023/07/14 09:36:12;;;;;;;14.90;4.90;;;;;;;;;;5014245;28;20439;-69
2023/07/14 09:39:58;;;;;;;18.95;5.18;;;;;;;;;;5020347;28;20057;-67
2023/07/14 09:43:39;;;;;;;17.85;4.68;;;;;;;;;;5015751;28;20533;-70
2023/07/14 09:47:23;;;;;;;22.60;5.65;;;;;;;;;;5014786;28;20045;-68
2023/07/14 09:50:52;;;;;;;16.75;5.20;;;;;;;;;;5022498;28;20494;-69
2023/07/14 09:54:39;;;;;;;16.92;5.40;;;;;;;;;;5019768;28;20124;-70
2023/07/14 09:57:58;;;;;;;;;;;;;;;;;;5035565;28;20076;-70
2023/07/14 10:01:43;;;;;;;15.30;5.93;;;;;;;;;;5041749;28;19925;-72
2023/07/14 10:05:23;;;;;;;14.18;4.88;;;;;;;;;;5031953;28;20046;-73
2023/07/14 10:09:11;;;;;;;16.85;5.90;;;;;;;;;;5042706;28;20037;-73
2023/07/14 10:12:50;;;;;;;16.88;5.28;;;;;;;;;;5048527;28;20037;-73
2023/07/14 10:16:14;;;;;;;15.52;4.75;;;;;;;;;;5040822;28;20080;-70
2023/07/14 10:19:55;;;;;;;16.60;5.03;;;;;;;;;;5045099;28;20083;-71
2023/07/14 10:23:35;;;;;;;12.80;5.05;;;;;;;;;;5043461;28;20371;-71
2023/07/14 10:27:15;;;;;;;15.13;5.00;;;;;;;;;;5033144;28;20056;-69
2023/07/14 10:30:39;;;;;;;12.15;4.60;;;;;;;;;;5033983;28;20497;-70
2023/07/14 10:34:23;;;;;;;12.73;4.43;;;;;;;;;;5041796;28;20513;-72
2023/07/14 10:38:06;;;;;;;11.80;4.55;;;;;;;;;;5036706;28;20155;-71
2023/07/14 10:41:46;;;;;;;12.95;4.50;;;;;;;;;;5036865;28;20145;-67
2023/07/14 10:45:28;;;;;;;20.38;4.88;;;;;;;;;;5039961;28;20496;-67
2023/07/14 10:49:05;;;;;;;19.65;4.70;;;;;;;;;;5039724;28;20049;-68
2023/07/14 10:52:45;;;;;;;13.50;4.60;;;;;;;;;;5042864;28;20073;-69
2023/07/14 10:56:25;;;;;;;11.85;4.60;;;;;;;;;;5056399;28;20084;-71
2023/07/14 11:00:11;;;;;;;13.40;4.43;;;;;;;;;;5035878;28;20070;-68
2023/07/14 11:03:49;;;;;;;13.82;3.90;;;;;;;;;;5039870;28;20045;-70
2023/07/14 11:07:30;;;;;;;17.27;4.25;;;;;;;;;;5041154;28;20484;-69
2023/07/14 11:10:50;;;;;;;10.23;4.07;;;;;;;;;;5043901;28;20044;-70
2023/07/14 11:14:08;;;;;;;13.85;4.45;;;;;;;;;;5037510;28;20044;-70
2023/07/14 11:17:47;;;;;;;13.02;3.53;;;;;;;;;;5035163;28;20044;-68
2023/07/14 11:21:10;;;;;;;10.50;4.32;;;;;;;;;;5040906;28;20139;-71
2023/07/14 11:24:57;;;;;;;12.73;4.55;;;;;;;;;;5041542;28;21255;-67
2023/07/14 11:28:29;;;;;;;10.10;3.40;;;;;;;;;;5043551;28;20041;-69
2023/07/14 11:32:09;;;;;;;14.23;3.72;;;;;;;;;;5040010;28;20144;-69
2023/07/14 11:35:52;;;;;;;8.63;3.22;;;;;;;;;;5043142;28;20067;-70
2023/07/14 11:39:03;;;;;;;13.50;3.88;;;;;;;;;;5034011;28;20084;-69
2023/07/14 11:42:45;;;;;;;14.88;4.00;;;;;;;;;;5038924;28;20497;-68
2023/07/14 11:46:25;;;;;;;12.00;3.65;;;;;;;;;;5041323;28;20044;-69
2023/07/14 11:50:05;;;;;;;10.40;3.67;;;;;;;;;;5038856;28;20049;-69
2023/07/14 11:53:06;;;;;;;10.57;3.67;;;;;;;;;;5039804;28;20493;-68
2023/07/14 11:57:01;;;;;;;12.82;4.00;;;;;;;;;;5032805;28;20522;-68
2023/07/14 12:00:45;;;;;;;9.07;3.53;;;;;;;;;;5038762;28;20051;-68
2023/07/14 12:04:20;;;;;;;17.67;3.92;;;;;;;;;;5045015;28;20036;-69
2023/07/14 12:07:59;;;;;;;14.77;3.50;;;;;;;;;;5037625;28;20408;-69
2023/07/14 12:11:46;;;;;;;13.95;3.75;;;;;;;;;;5043810;28;20139;-70
2023/07/14 12:15:43;;;;;;;16.52;3.50;;;;;;;;;;5043443;28;20044;-68
2023/07/14 12:19:42;;;;;;;15.43;4.57;;;;;;;;;;4944711;28;20527;-68
2023/07/14 12:23:30;;;;;;;15.85;4.70;;;;;;;;;;4946181;28;20411;-69
2023/07/14 12:26:57;;;;;;;9.85;2.97;;;;;;;;;;4953411;28;20055;-69
2023/07/14 12:30:49;;;;;;;10.60;3.33;;;;;;;;;;4948005;28;20511;-69
2023/07/14 12:34:37;;;;;;;8.60;3.13;;;;;;;;;;4950384;28;20081;-71
2023/07/14 12:38:27;;;;;;;10.27;3.47;;;;;;;;;;4948000;28;20470;-68
2023/07/14 12:42:07;;;;;;;14.80;3.60;;;;;;;;;;4945555;28;20046;-69
2023/07/14 12:45:48;;;;;;;14.05;3.47;;;;;;;;;;4947126;28;20051;-67
2023/07/14 12:49:37;;;;;;;7.88;3.05;;;;;;;;;;4987232;28;20038;-70
2023/07/14 12:53:18;;;;;;;14.48;3.65;;;;;;;;;;5030823;28;20509;-70
2023/07/14 12:56:58;;;;;;;16.52;3.80;;;;;;;;;;5032718;28;20091;-75
2023/07/14 13:00:19;;;;;;;14.00;3.55;;;;;;;;;;5034490;28;20063;-66
2023/07/14 13:03:59;;;;;;;11.00;3.38;;;;;;;;;;5035689;28;20049;-69
2023/07/14 13:07:45;;;;;;;17.70;3.97;;;;;;;;;;5036259;28;20127;-68
2023/07/14 13:11:26;;;;;;;9.32;3.13;;;;;;;;;;5035282;28;20554;-70
2023/07/14 13:15:06;;;;;;;10.75;3.33;;;;;;;;;;5034164;28;20317;-70
2023/07/14 13:18:46;;;;;;;14.35;3.45;;;;;;;;;;5039600;28;20048;-70
2023/07/14 13:22:31;;;;;;;17.13;3.67;;;;;;;;;;5037149;28;20056;-70
2023/07/14 13:25:57;;;;;;;11.45;3.65;;;;;;;;;;5035746;28;20053;-69
2023/07/14 13:29:38;;;;;;;17.02;4.28;;;;;;;;;;5039949;28;20041;-70
2023/07/14 13:33:19;;;;;;;10.13;3.80;;;;;;;;;;5034402;28;20132;-70
2023/07/14 13:37:02;;;;;;;10.68;3.25;;;;;;;;;;5036075;28;20059;-67
2023/07/14 13:40:23;;;;;;;12.30;3.47;;;;;;;;;;5034539;28;20110;-69
2023/07/14 13:43:44;;;;;;;12.63;3.70;;;;;;;;;;5034345;28;20408;-70
2023/07/14 13:47:15;;;;;;;14.00;4.00;;;;;;;;;;5039194;28;20053;-68
2023/07/14 13:50:55;;;;;;;8.82;3.28;;;;;;;;;;5041840;28;20056;-71
2023/07/14 13:54:36;;;;;;;11.20;3.25;;;;;;;;;;5040658;28;20365;-69
2023/07/14 13:58:17;;;;;;;8.88;2.95;;;;;;;;;;5036080;28;20065;-68
2023/07/14 14:02:01;;;;;;;16.35;3.47;;;;;;;;;;5030991;28;20106;-67
2023/07/14 14:05:41;;;;;;;11.75;3.53;;;;;;;;;;5038004;28;20076;-67
2023/07/14 14:09:21;;;;;;;10.30;3.13;;;;;;;;;;5038873;28;20365;-69
2023/07/14 14:13:04;;;;;;;10.43;3.17;;;;;;;;;;5034010;28;20059;-69
2023/07/14 14:16:43;;;;;;;16.77;3.67;;;;;;;;;;5035768;28;20041;-68
2023/07/14 14:20:23;;;;;;;9.13;3.63;;;;;;;;;;5033199;28;20068;-69
2023/07/14 14:24:03;;;;;;;13.65;3.75;;;;;;;;;;5039844;28;20056;-70
2023/07/14 14:27:45;;;;;;;11.98;3.15;;;;;;;;;;5036016;28;20060;-68
2023/07/14 14:31:29;;;;;;;12.00;3.30;;;;;;;;;;5040319;28;20518;-69
2023/07/14 14:35:09;;;;;;;10.75;3.55;;;;;;;;;;5037636;28;20056;-69
2023/07/14 14:38:53;;;;;;;11.45;3.28;;;;;;;;;;5032170;28;20095;-69
2023/07/14 14:42:33;;;;;;;9.15;3.33;;;;;;;;;;5033941;28;20053;-71
2023/07/14 14:46:13;;;;;;;11.90;3.08;;;;;;;;;;5036834;28;20118;-73
2023/07/14 14:49:54;;;;;;;14.00;3.33;;;;;;;;;;5029791;28;20045;-69
2023/07/14 14:53:35;;;;;;;11.65;3.03;;;;;;;;;;5031935;28;20390;-74
2023/07/14 14:56:54;;;;;;;15.90;3.45;;;;;;;;;;5035576;28;20045;-71
2023/07/14 14:59:23;;;;;;;12.93;3.60;;;;;;;;;;5028664;28;20498;-70
2023/07/14 15:01:50;;;;;;;9.82;3.33;;;;;;;;;;5034881;28;20053;-70
2023/07/14 15:04:18;;;;;;;14.07;3.25;;;;;;;;;;5035070;28;20056;-72
2023/07/14 15:06:46;;;;;;;15.25;3.60;;;;;;;;;;5037648;28;20045;-72
2023/07/14 15:09:13;;;;;;;13.90;3.55;;;;;;;;;;5042609;28;20036;-69
2023/07/14 15:11:41;;;;;;;16.85;3.35;;;;;;;;;;5035845;28;20053;-74
2023/07/14 15:14:25;;;;;;;14.88;3.60;;;;;;;;;;5034545;28;20103;-70
2023/07/14 15:16:51;;;;;;;11.35;3.63;;;;;;;;;;5033753;28;20053;-70
2023/07/14 15:19:17;;;;;;;13.65;3.35;;;;;;;;;;5041239;28;20170;-70
2023/07/14 15:21:43;;;;;;;19.60;3.70;;;;;;;;;;5035588;28;20065;-72
2023/07/14 15:24:10;;;;;;;11.68;3.40;;;;;;;;;;5035564;28;20049;-71
2023/07/14 15:26:42;;;;;;;15.77;3.95;;;;;;;;;;5040730;28;20049;-73
2023/07/14 15:29:18;;;;;;;18.65;3.97;;;;;;;;;;5035775;28;20435;-73
2023/07/14 15:31:46;;;;;;;13.52;3.70;;;;;;;;;;5038195;28;20055;-70
2023/07/14 15:34:14;;;;;;;13.68;3.97;;;;;;;;;;5035101;28;20143;-72
2023/07/14 15:36:41;;;;;;;16.30;3.42;;;;;;;;;;5039655;28;20034;-74
2023/07/14 15:39:11;;;;;;;16.85;3.30;;;;;;;;;;5014042;28;20494;-70
2023/07/14 15:41:39;;;;;;;17.00;4.25;;;;;;;;;;5040659;28;20037;-70
2023/07/14 15:44:14;;;;;;;15.55;4.20;;;;;;;;;;5040155;28;20501;-69
2023/07/14 15:46:41;;;;;;;15.82;3.80;;;;;;;;;;5041044;28;20418;-73
2023/07/14 15:49:14;;;;;;;12.60;3.45;;;;;;;;;;5039043;28;20087;-70
2023/07/14 15:51:42;;;;;;;11.40;3.88;;;;;;;;;;5046916;28;20536;-70
2023/07/14 15:54:26;;;;;;;15.75;3.78;;;;;;;;;;5035657;28;20063;-72
2023/07/14 15:56:51;;;;;;;14.35;3.88;;;;;;;;;;5033928;28;20619;-70
2023/07/14 15:59:19;;;;;;;15.25;3.45;;;;;;;;;;5039757;28;20048;-71
2023/07/14 16:01:45;;;;;;;15.10;4.00;;;;;;;;;;5040359;28;20053;-72
2023/07/14 16:04:11;;;;;;;13.70;3.78;;;;;;;;;;5038486;28;20045;-78
2023/07/14 16:06:41;;;;;;;14.10;3.90;;;;;;;;;;5043864;28;20465;-71
2023/07/14 16:09:15;;;;;;;10.73;3.67;;;;;;;;;;5028038;28;20049;-65
2023/07/14 16:12:21;;;;;;;12.95;3.22;;;;;;;;;;5029903;28;20053;-68
2023/07/14 16:16:01;;;;;;;10.90;3.65;;;;;;;;;;5030686;28;20471;-68
2023/07/14 16:19:41;;;;;;;14.63;3.42;;;;;;;;;;5037910;28;20099;-68
2023/07/14 16:23:25;;;;;;;16.13;4.07;;;;;;;;;;5038226;28;20127;-69
2023/07/14 16:27:06;;;;;;;13.50;3.58;;;;;;;;;;5035050;28;20106;-68
2023/07/14 16:30:50;;;;;;;12.13;3.50;;;;;;;;;;5037726;28;20049;-68
2023/07/14 16:34:32;;;;;;;16.33;3.95;;;;;;;;;;5037346;28;20048;-68
2023/07/14 16:38:11;;;;;;;12.82;3.25;;;;;;;;;;5038984;28;20063;-68
2023/07/14 16:41:52;;;;;;;13.15;3.33;;;;;;;;;;5034961;28;20045;-67
2023/07/14 16:45:32;;;;;;;18.17;3.97;;;;;;;;;;5035345;28;20137;-70
2023/07/14 16:49:12;;;;;;;16.98;3.47;;;;;;;;;;5034285;28;20370;-70
2023/07/14 16:52:59;;;;;;;14.40;3.70;;;;;;;;;;5040074;28;20060;-68
2023/07/14 16:56:39;;;;;;;15.95;3.55;;;;;;;;;;5032236;28;20126;-68
2023/07/14 17:00:28;;;;;;;17.85;3.72;;;;;;;;;;5041732;28;20045;-67
2023/07/14 17:04:00;;;;;;;14.38;3.47;;;;;;;;;;5032594;28;20082;-70
2023/07/14 17:07:40;;;;;;;15.55;3.63;;;;;;;;;;5031203;28;20148;-73
2023/07/14 17:11:22;;;;;;;16.25;3.88;;;;;;;;;;5031714;28;20048;-69
2023/07/14 17:15:01;;;;;;;14.10;3.35;;;;;;;;;;5035116;28;20488;-69
2023/07/14 17:18:41;;;;;;;14.88;3.65;;;;;;;;;;5020988;28;20870;-68
2023/07/14 17:22:22;;;;;;;16.27;3.63;;;;;;;;;;5030596;28;20040;-70
2023/07/14 17:26:04;;;;;;;23.15;4.20;;;;;;;;;;5026906;28;20128;-68
2023/07/14 17:29:46;;;;;;;14.05;4.18;;;;;;;;;;5023425;28;20042;-61
2023/07/14 17:33:26;;;;;;;22.08;4.53;;;;;;;;;;5019526;28;20209;-57
2023/07/14 17:37:07;;;;;;;23.40;4.25;;;;;;;;;;5019854;28;20881;-62
2023/07/14 17:40:43;;;;;;;17.80;4.13;;;;;;;;;;5018484;28;20493;-72
2023/07/14 17:44:25;;;;;;;20.17;4.10;;;;;;;;;;5037354;28;20045;-71
2023/07/14 17:48:11;;;;;;;18.95;4.10;;;;;;;;;;5039093;28;20041;-62
2023/07/14 17:51:48;;;;;;;14.18;4.03;;;;;;;;;;5037899;28;20748;-64
2023/07/14 17:55:29;;;;;;;16.52;4.32;;;;;;;;;;5034546;28;20496;-63
2023/07/14 17:59:09;;;;;;;18.02;4.43;;;;;;;;;;5027713;28;20454;-63
2023/07/14 18:02:51;;;;;;;15.05;4.18;;;;;;;;;;5019967;28;20127;-63
2023/07/14 18:06:30;;;;;;;17.23;4.50;;;;;;;;;;5027086;28;20528;-63
2023/07/14 18:10:10;;;;;;;16.52;4.32;;;;;;;;;;5026615;28;20041;-65
2023/07/14 18:13:53;;;;;;;13.60;3.65;;;;;;;;;;5033652;28;20076;-65
2023/07/14 18:17:35;;;;;;;16.88;3.83;;;;;;;;;;5032869;28;20060;-64
2023/07/14 18:21:16;;;;;;;17.58;4.10;;;;;;;;;;5032165;28;20067;-64
2023/07/14 18:24:56;;;;;;;24.38;3.88;;;;;;;;;;5029577;28;20041;-63
2023/07/14 18:28:36;;;;;;;17.65;4.20;;;;;;;;;;5027365;28;20064;-66
2023/07/14 18:32:17;;;;;;;14.23;3.40;;;;;;;;;;5035496;28;20286;-65
2023/07/14 18:35:20;;;;;;;17.60;4.28;;;;;;;;;;5031672;28;20099;-66
2023/07/14 18:39:00;;;;;;;23.42;4.25;;;;;;;;;;5041984;28;20405;-65
2023/07/14 18:42:41;;;;;;;20.25;3.60;;;;;;;;;;5032627;28;20063;-68
2023/07/14 18:46:23;;;;;;;22.17;5.03;;;;;;;;;;5035054;28;20047;-68
2023/07/14 18:50:01;;;;;;;21.52;4.30;;;;;;;;;;5036429;28;20057;-67
2023/07/14 18:53:13;;;;;;;20.48;4.05;;;;;;;;;;5039113;28;20041;-66
2023/07/14 18:55:43;;;;;;;14.77;3.90;;;;;;;;;;5035059;28;20060;-63
2023/07/14 18:58:17;;;;;;;16.13;3.92;;;;;;;;;;5035220;28;20072;-65
2023/07/14 19:00:45;;;;;;;19.95;3.85;;;;;;;;;;5030990;28;20107;-65
2023/07/14 19:03:24;;;;;;;13.30;3.33;;;;;;;;;;5031643;28;20521;-65
2023/07/14 19:05:51;;;;;;;20.23;3.60;;;;;;;;;;5034648;28;20110;-62
2023/07/14 19:08:19;;;;;;;16.58;3.70;;;;;;;;;;5013796;28;20042;-65
2023/07/14 19:11:00;;;;;;;12.10;3.88;;;;;;;;;;5003908;28;20052;-65
2023/07/14 19:13:30;;;;;;;23.23;4.25;;;;;;;;;;5002029;28;20123;-64
2023/07/14 19:15:59;;;;;;;13.50;3.78;;;;;;;;;;4998051;28;20057;-64
2023/07/14 19:18:26;;;;;;;17.85;4.15;;;;;;;;;;4997166;28;20089;-65
2023/07/14 19:20:55;;;;;;;15.85;3.90;;;;;;;;;;4964207;28;20060;-71
2023/07/14 19:23:24;;;;;;;19.50;3.90;;;;;;;;;;5005201;28;20383;-65
2023/07/14 19:25:51;;;;;;;17.33;4.35;;;;;;;;;;5014367;28;20463;-68
2023/07/14 19:28:20;;;;;;;15.73;3.80;;;;;;;;;;5020723;28;20045;-65
2023/07/14 19:30:49;;;;;;;14.27;4.32;;;;;;;;;;5013730;28;20049;-72
2023/07/14 19:33:21;;;;;;;17.65;4.70;;;;;;;;;;5007473;28;20054;-67
2023/07/14 19:35:54;;;;;;;19.23;4.55;;;;;;;;;;5008659;28;20060;-68
2023/07/14 19:38:26;;;;;;;18.65;4.30;;;;;;;;;;5010752;28;20042;-76
2023/07/14 19:40:53;;;;;;;23.00;4.30;;;;;;;;;;5008376;28;20037;-68
2023/07/14 19:43:21;;;;;;;17.35;4.00;;;;;;;;;;5019600;28;20049;-73
2023/07/14 19:45:49;;;;;;;20.80;4.38;;;;;;;;;;4988222;28;20084;-65
2023/07/14 19:48:16;;;;;;;16.92;4.30;;;;;;;;;;5018971;28;20046;-74
2023/07/14 19:50:44;;;;;;;19.52;4.35;;;;;;;;;;5021242;28;20049;-68
2023/07/14 19:53:18;;;;;;;20.45;4.72;;;;;;;;;;5013623;28;20049;-79
2023/07/14 19:55:45;;;;;;;;;;;;;;;;;;5022399;28;20050;-70
2023/07/14 19:58:13;;;;;;;17.85;3.90;;;;;;;;;;5018571;28;19928;-74
2023/07/14 20:00:41;;;;;;;25.00;5.30;;;;;;;;;;5016487;28;20513;-65
2023/07/14 20:03:20;;;;;;;17.77;4.35;;;;;;;;;;5004031;28;20060;-68
2023/07/14 20:05:50;;;;;;;18.52;4.78;;;;;;;;;;5012292;28;20449;-69
2023/07/14 20:08:21;;;;;;;19.35;4.75;;;;;;;;;;5013733;28;20045;-67
2023/07/14 20:10:51;;;;;;;21.38;3.90;;;;;;;;;;5024841;28;20049;-67